sensor_id;sensor_type;location;lat;lon;timestamp;temperature;humidity
52107;DHT22;38105;52.968;5.974;2022-07-23T00:00:47;13.80;99.90
52107;DHT22;38105;52.968;5.974;2022-07-23T00:03:12;13.80;99.90
52107;DHT22;38105;52.968;5.974;2022-07-23T00:05:38;13.70;99.90
52107;DHT22;38105;52.968;5.974;2022-07-23T00:08:05;13.70;99.90
52107;DHT22;38105;52.968;5.974;2022-07-23T00:10:32;13.70;99.90
52107;DHT22;38105;52.968;5.974;2022-07-23T00:12:57;13.60;99.90
52107;DHT22;38105;52.968;5.974;2022-07-23T00:15:23;13.60;99.90
52107;DHT22;38105;52.968;5.974;2022-07-23T00:17:49;13.60;99.90
52107;DHT22;38105;52.968;5.974;2022-07-23T00:20:14;13.60;99.90
52107;DHT22;38105;52.968;5.974;2022-07-23T00:22:51;13.60;99.90
52107;DHT22;38105;52.968;5.974;2022-07-23T00:25:17;13.40;99.90
52107;DHT22;38105;52.968;5.974;2022-07-23T00:27:43;13.50;99.90
52107;DHT22;38105;52.968;5.974;2022-07-23T00:30:10;13.60;99.90
52107;DHT22;38105;52.968;5.974;2022-07-23T00:35:11;13.50;99.90
52107;DHT22;38105;52.968;5.974;2022-07-23T00:37:37;13.30;99.90
52107;DHT22;38105;52.968;5.974;2022-07-23T00:40:03;13.40;99.90
52107;DHT22;38105;52.968;5.974;2022-07-23T00:42:31;13.40;99.90
52107;DHT22;38105;52.968;5.974;2022-07-23T00:44:56;13.40;99.90
52107;DHT22;38105;52.968;5.974;2022-07-23T00:47:22;13.50;99.90
52107;DHT22;38105;52.968;5.974;2022-07-23T00:49:48;13.40;99.90
52107;DHT22;38105;52.968;5.974;2022-07-23T00:52:13;13.30;99.90
52107;DHT22;38105;52.968;5.974;2022-07-23T00:54:39;13.20;99.90
52107;DHT22;38105;52.968;5.974;2022-07-23T00:57:05;13.40;99.90
52107;DHT22;38105;52.968;5.974;2022-07-23T00:59:31;13.40;99.90
52107;DHT22;38105;52.968;5.974;2022-07-23T01:01:56;13.30;99.90
52107;DHT22;38105;52.968;5.974;2022-07-23T01:04:22;13.20;99.90
52107;DHT22;38105;52.968;5.974;2022-07-23T01:06:48;13.30;99.90
52107;DHT22;38105;52.968;5.974;2022-07-23T01:09:13;13.10;99.90
52107;DHT22;38105;52.968;5.974;2022-07-23T01:11:40;13.10;99.90
52107;DHT22;38105;52.968;5.974;2022-07-23T01:14:17;13.30;99.90
52107;DHT22;38105;52.968;5.974;2022-07-23T01:16:46;13.20;99.90
52107;DHT22;38105;52.968;5.974;2022-07-23T01:19:12;13.20;99.90
52107;DHT22;38105;52.968;5.974;2022-07-23T01:21:44;13.30;99.90
52107;DHT22;38105;52.968;5.974;2022-07-23T01:24:10;13.30;99.90
52107;DHT22;38105;52.968;5.974;2022-07-23T01:26:37;13.20;99.90
52107;DHT22;38105;52.968;5.974;2022-07-23T01:29:03;13.10;99.90
52107;DHT22;38105;52.968;5.974;2022-07-23T01:31:29;13.00;99.90
52107;DHT22;38105;52.968;5.974;2022-07-23T01:33:55;13.00;99.90
52107;DHT22;38105;52.968;5.974;2022-07-23T01:36:21;13.20;99.90
52107;DHT22;38105;52.968;5.974;2022-07-23T01:38:47;13.10;99.90
52107;DHT22;38105;52.968;5.974;2022-07-23T01:41:12;13.20;99.90
52107;DHT22;38105;52.968;5.974;2022-07-23T01:43:38;13.10;99.90
52107;DHT22;38105;52.968;5.974;2022-07-23T01:46:03;13.00;99.90
52107;DHT22;38105;52.968;5.974;2022-07-23T01:48:29;13.00;99.90
52107;DHT22;38105;52.968;5.974;2022-07-23T01:50:55;13.00;99.90
52107;DHT22;38105;52.968;5.974;2022-07-23T01:53:20;13.00;99.90
52107;DHT22;38105;52.968;5.974;2022-07-23T01:55:46;13.00;99.90
52107;DHT22;38105;52.968;5.974;2022-07-23T01:58:12;12.80;99.90
52107;DHT22;38105;52.968;5.974;2022-07-23T02:00:37;12.90;99.90
52107;DHT22;38105;52.968;5.974;2022-07-23T02:03:03;12.80;99.90
52107;DHT22;38105;52.968;5.974;2022-07-23T02:05:29;12.80;99.90
52107;DHT22;38105;52.968;5.974;2022-07-23T02:07:56;12.60;99.90
52107;DHT22;38105;52.968;5.974;2022-07-23T02:10:22;12.60;99.90
52107;DHT22;38105;52.968;5.974;2022-07-23T02:12:48;12.70;99.90
52107;DHT22;38105;52.968;5.974;2022-07-23T02:15:13;12.50;99.90
52107;DHT22;38105;52.968;5.974;2022-07-23T02:17:39;12.50;99.90
52107;DHT22;38105;52.968;5.974;2022-07-23T02:20:06;12.40;99.90
52107;DHT22;38105;52.968;5.974;2022-07-23T02:22:33;12.60;99.90
52107;DHT22;38105;52.968;5.974;2022-07-23T02:24:59;12.60;99.90
52107;DHT22;38105;52.968;5.974;2022-07-23T02:27:25;12.50;99.90
52107;DHT22;38105;52.968;5.974;2022-07-23T02:29:50;12.50;99.90
52107;DHT22;38105;52.968;5.974;2022-07-23T02:32:16;12.40;99.90
52107;DHT22;38105;52.968;5.974;2022-07-23T02:34:42;12.50;99.90
52107;DHT22;38105;52.968;5.974;2022-07-23T02:37:07;12.30;99.90
52107;DHT22;38105;52.968;5.974;2022-07-23T02:39:35;12.40;99.90
52107;DHT22;38105;52.968;5.974;2022-07-23T02:42:01;12.30;99.90
52107;DHT22;38105;52.968;5.974;2022-07-23T02:44:27;12.40;99.90
52107;DHT22;38105;52.968;5.974;2022-07-23T02:46:52;12.30;99.90
52107;DHT22;38105;52.968;5.974;2022-07-23T02:49:18;12.20;99.90
52107;DHT22;38105;52.968;5.974;2022-07-23T02:51:44;12.40;99.90
52107;DHT22;38105;52.968;5.974;2022-07-23T02:54:09;12.20;99.90
52107;DHT22;38105;52.968;5.974;2022-07-23T02:56:35;12.20;99.90
52107;DHT22;38105;52.968;5.974;2022-07-23T02:59:00;12.10;99.90
52107;DHT22;38105;52.968;5.974;2022-07-23T03:01:26;12.10;99.90
52107;DHT22;38105;52.968;5.974;2022-07-23T03:03:52;12.00;99.90
52107;DHT22;38105;52.968;5.974;2022-07-23T03:06:17;12.20;99.90
52107;DHT22;38105;52.968;5.974;2022-07-23T03:08:43;12.20;99.90
52107;DHT22;38105;52.968;5.974;2022-07-23T03:11:09;11.90;99.90
52107;DHT22;38105;52.968;5.974;2022-07-23T03:13:40;12.00;99.90
52107;DHT22;38105;52.968;5.974;2022-07-23T03:16:06;11.90;99.90
52107;DHT22;38105;52.968;5.974;2022-07-23T03:18:32;12.00;99.90
52107;DHT22;38105;52.968;5.974;2022-07-23T03:20:59;12.00;99.90
52107;DHT22;38105;52.968;5.974;2022-07-23T03:23:25;11.90;99.90
52107;DHT22;38105;52.968;5.974;2022-07-23T03:25:51;11.90;99.90
52107;DHT22;38105;52.968;5.974;2022-07-23T03:28:18;11.70;99.90
52107;DHT22;38105;52.968;5.974;2022-07-23T03:30:45;11.90;99.90
52107;DHT22;38105;52.968;5.974;2022-07-23T03:33:16;11.70;99.90
52107;DHT22;38105;52.968;5.974;2022-07-23T03:35:45;11.80;99.90
52107;DHT22;38105;52.968;5.974;2022-07-23T03:38:11;11.90;99.90
52107;DHT22;38105;52.968;5.974;2022-07-23T03:40:37;11.80;99.90
52107;DHT22;38105;52.968;5.974;2022-07-23T03:43:03;11.60;99.90
52107;DHT22;38105;52.968;5.974;2022-07-23T03:45:29;11.80;99.90
52107;DHT22;38105;52.968;5.974;2022-07-23T03:47:55;11.60;99.90
52107;DHT22;38105;52.968;5.974;2022-07-23T03:50:21;11.60;99.90
52107;DHT22;38105;52.968;5.974;2022-07-23T03:52:47;11.70;99.90
52107;DHT22;38105;52.968;5.974;2022-07-23T03:55:13;11.70;99.90
52107;DHT22;38105;52.968;5.974;2022-07-23T03:57:40;11.60;99.90
52107;DHT22;38105;52.968;5.974;2022-07-23T04:00:06;11.80;99.90
52107;DHT22;38105;52.968;5.974;2022-07-23T04:02:35;11.70;99.90
52107;DHT22;38105;52.968;5.974;2022-07-23T04:05:01;11.80;99.90
52107;DHT22;38105;52.968;5.974;2022-07-23T04:07:26;11.90;99.90
52107;DHT22;38105;52.968;5.974;2022-07-23T04:09:52;12.00;99.90
52107;DHT22;38105;52.968;5.974;2022-07-23T04:12:18;11.90;99.90
52107;DHT22;38105;52.968;5.974;2022-07-23T04:14:44;12.10;99.90
52107;DHT22;38105;52.968;5.974;2022-07-23T04:17:11;12.10;99.90
52107;DHT22;38105;52.968;5.974;2022-07-23T04:19:36;12.10;99.90
52107;DHT22;38105;52.968;5.974;2022-07-23T04:22:06;12.10;99.90
52107;DHT22;38105;52.968;5.974;2022-07-23T04:24:32;12.40;99.90
52107;DHT22;38105;52.968;5.974;2022-07-23T04:26:58;12.40;99.90
52107;DHT22;38105;52.968;5.974;2022-07-23T04:29:24;12.40;99.90
52107;DHT22;38105;52.968;5.974;2022-07-23T04:31:50;12.50;99.90
52107;DHT22;38105;52.968;5.974;2022-07-23T04:34:15;12.70;99.90
52107;DHT22;38105;52.968;5.974;2022-07-23T04:36:41;12.60;99.90
52107;DHT22;38105;52.968;5.974;2022-07-23T04:39:06;12.60;99.90
52107;DHT22;38105;52.968;5.974;2022-07-23T04:41:32;12.80;99.90
52107;DHT22;38105;52.968;5.974;2022-07-23T04:43:59;13.30;99.90
52107;DHT22;38105;52.968;5.974;2022-07-23T04:46:25;14.50;99.90
52107;DHT22;38105;52.968;5.974;2022-07-23T04:48:51;15.30;99.90
52107;DHT22;38105;52.968;5.974;2022-07-23T04:51:16;15.80;99.90
52107;DHT22;38105;52.968;5.974;2022-07-23T04:53:42;16.10;99.90
52107;DHT22;38105;52.968;5.974;2022-07-23T04:56:08;16.20;99.90
52107;DHT22;38105;52.968;5.974;2022-07-23T04:58:33;16.90;99.90
52107;DHT22;38105;52.968;5.974;2022-07-23T05:00:59;17.80;99.90
52107;DHT22;38105;52.968;5.974;2022-07-23T05:03:25;18.60;99.90
52107;DHT22;38105;52.968;5.974;2022-07-23T05:05:50;19.30;99.90
52107;DHT22;38105;52.968;5.974;2022-07-23T05:08:17;20.00;99.90
52107;DHT22;38105;52.968;5.974;2022-07-23T05:10:42;20.60;99.90
52107;DHT22;38105;52.968;5.974;2022-07-23T05:13:08;21.30;99.90
52107;DHT22;38105;52.968;5.974;2022-07-23T05:15:34;21.90;99.90
52107;DHT22;38105;52.968;5.974;2022-07-23T05:17:59;22.40;99.90
52107;DHT22;38105;52.968;5.974;2022-07-23T05:20:25;22.80;99.90
52107;DHT22;38105;52.968;5.974;2022-07-23T05:22:51;23.30;99.90
52107;DHT22;38105;52.968;5.974;2022-07-23T05:25:17;23.80;99.90
52107;DHT22;38105;52.968;5.974;2022-07-23T05:27:42;24.20;99.90
52107;DHT22;38105;52.968;5.974;2022-07-23T05:30:08;24.70;99.90
52107;DHT22;38105;52.968;5.974;2022-07-23T05:32:34;25.20;99.90
52107;DHT22;38105;52.968;5.974;2022-07-23T05:35:02;25.50;99.90
52107;DHT22;38105;52.968;5.974;2022-07-23T05:37:28;25.90;99.90
52107;DHT22;38105;52.968;5.974;2022-07-23T05:39:54;26.30;99.90
52107;DHT22;38105;52.968;5.974;2022-07-23T05:42:19;26.60;99.90
52107;DHT22;38105;52.968;5.974;2022-07-23T05:44:45;27.00;99.90
52107;DHT22;38105;52.968;5.974;2022-07-23T05:47:11;27.50;99.90
52107;DHT22;38105;52.968;5.974;2022-07-23T05:49:37;27.90;99.90
52107;DHT22;38105;52.968;5.974;2022-07-23T05:52:05;28.20;99.90
52107;DHT22;38105;52.968;5.974;2022-07-23T05:54:31;28.70;99.90
52107;DHT22;38105;52.968;5.974;2022-07-23T05:56:58;28.90;99.90
52107;DHT22;38105;52.968;5.974;2022-07-23T05:59:24;29.30;99.60
52107;DHT22;38105;52.968;5.974;2022-07-23T06:01:50;29.30;99.10
52107;DHT22;38105;52.968;5.974;2022-07-23T06:04:15;29.30;98.20
52107;DHT22;38105;52.968;5.974;2022-07-23T06:06:41;29.70;98.20
52107;DHT22;38105;52.968;5.974;2022-07-23T06:09:06;30.00;98.00
52107;DHT22;38105;52.968;5.974;2022-07-23T06:11:32;30.40;97.40
52107;DHT22;38105;52.968;5.974;2022-07-23T06:13:58;30.50;96.70
52107;DHT22;38105;52.968;5.974;2022-07-23T06:16:24;30.70;96.10
52107;DHT22;38105;52.968;5.974;2022-07-23T06:18:50;30.70;95.20
52107;DHT22;38105;52.968;5.974;2022-07-23T06:21:15;30.60;95.30
52107;DHT22;38105;52.968;5.974;2022-07-23T06:23:41;30.80;95.00
52107;DHT22;38105;52.968;5.974;2022-07-23T06:26:06;30.90;94.50
52107;DHT22;38105;52.968;5.974;2022-07-23T06:28:32;31.10;94.40
52107;DHT22;38105;52.968;5.974;2022-07-23T06:30:58;31.00;94.00
52107;DHT22;38105;52.968;5.974;2022-07-23T06:33:23;31.00;94.10
52107;DHT22;38105;52.968;5.974;2022-07-23T06:35:49;31.30;94.10
52107;DHT22;38105;52.968;5.974;2022-07-23T06:38:14;31.60;93.30
52107;DHT22;38105;52.968;5.974;2022-07-23T06:40:40;31.80;92.80
52107;DHT22;38105;52.968;5.974;2022-07-23T06:43:06;31.80;93.10
52107;DHT22;38105;52.968;5.974;2022-07-23T06:45:31;32.20;92.60
52107;DHT22;38105;52.968;5.974;2022-07-23T06:47:57;32.20;92.00
52107;DHT22;38105;52.968;5.974;2022-07-23T06:50:23;31.80;91.50
52107;DHT22;38105;52.968;5.974;2022-07-23T06:52:48;31.90;91.50
52107;DHT22;38105;52.968;5.974;2022-07-23T06:55:14;32.00;91.40
52107;DHT22;38105;52.968;5.974;2022-07-23T06:57:40;32.30;91.10
52107;DHT22;38105;52.968;5.974;2022-07-23T07:00:06;31.90;90.70
52107;DHT22;38105;52.968;5.974;2022-07-23T07:02:32;31.90;90.70
52107;DHT22;38105;52.968;5.974;2022-07-23T07:04:57;32.10;90.40
52107;DHT22;38105;52.968;5.974;2022-07-23T07:07:23;32.60;90.00
52107;DHT22;38105;52.968;5.974;2022-07-23T07:09:49;32.50;89.80
52107;DHT22;38105;52.968;5.974;2022-07-23T07:12:15;32.30;89.20
52107;DHT22;38105;52.968;5.974;2022-07-23T07:14:40;32.40;89.50
52107;DHT22;38105;52.968;5.974;2022-07-23T07:17:06;32.10;88.80
52107;DHT22;38105;52.968;5.974;2022-07-23T07:19:32;32.50;88.30
52107;DHT22;38105;52.968;5.974;2022-07-23T07:21:57;32.90;86.70
52107;DHT22;38105;52.968;5.974;2022-07-23T07:24:23;32.80;87.40
52107;DHT22;38105;52.968;5.974;2022-07-23T07:26:49;33.20;85.10
52107;DHT22;38105;52.968;5.974;2022-07-23T07:29:14;33.50;85.90
52107;DHT22;38105;52.968;5.974;2022-07-23T07:31:40;33.30;84.70
52107;DHT22;38105;52.968;5.974;2022-07-23T07:34:05;33.40;84.10
52107;DHT22;38105;52.968;5.974;2022-07-23T07:36:31;33.40;82.90
52107;DHT22;38105;52.968;5.974;2022-07-23T07:38:58;33.10;83.20
52107;DHT22;38105;52.968;5.974;2022-07-23T07:41:23;32.80;85.00
52107;DHT22;38105;52.968;5.974;2022-07-23T07:43:51;32.20;84.00
52107;DHT22;38105;52.968;5.974;2022-07-23T07:46:17;32.40;84.90
52107;DHT22;38105;52.968;5.974;2022-07-23T07:48:43;32.20;83.20
52107;DHT22;38105;52.968;5.974;2022-07-23T07:51:09;31.80;84.60
52107;DHT22;38105;52.968;5.974;2022-07-23T07:53:34;30.50;83.80
52107;DHT22;38105;52.968;5.974;2022-07-23T07:56:00;30.00;86.50
52107;DHT22;38105;52.968;5.974;2022-07-23T07:58:26;29.60;87.90
52107;DHT22;38105;52.968;5.974;2022-07-23T08:00:51;28.70;86.10
52107;DHT22;38105;52.968;5.974;2022-07-23T08:03:17;28.20;87.70
52107;DHT22;38105;52.968;5.974;2022-07-23T08:05:43;27.90;87.40
52107;DHT22;38105;52.968;5.974;2022-07-23T08:08:08;27.90;88.20
52107;DHT22;38105;52.968;5.974;2022-07-23T08:10:40;28.00;89.10
52107;DHT22;38105;52.968;5.974;2022-07-23T08:13:06;28.10;89.30
52107;DHT22;38105;52.968;5.974;2022-07-23T08:15:31;27.70;89.00
52107;DHT22;38105;52.968;5.974;2022-07-23T08:17:57;27.50;89.60
52107;DHT22;38105;52.968;5.974;2022-07-23T08:20:24;27.20;89.10
52107;DHT22;38105;52.968;5.974;2022-07-23T08:25:27;26.70;90.10
52107;DHT22;38105;52.968;5.974;2022-07-23T08:27:53;26.20;89.70
52107;DHT22;38105;52.968;5.974;2022-07-23T08:30:19;26.00;91.20
52107;DHT22;38105;52.968;5.974;2022-07-23T08:32:57;25.70;91.80
52107;DHT22;38105;52.968;5.974;2022-07-23T08:37:53;25.40;92.00
52107;DHT22;38105;52.968;5.974;2022-07-23T08:40:19;25.20;92.00
52107;DHT22;38105;52.968;5.974;2022-07-23T08:42:47;25.20;92.50
52107;DHT22;38105;52.968;5.974;2022-07-23T08:45:16;24.90;92.60
52107;DHT22;38105;52.968;5.974;2022-07-23T08:47:43;25.00;93.20
52107;DHT22;38105;52.968;5.974;2022-07-23T08:50:10;25.10;92.90
52107;DHT22;38105;52.968;5.974;2022-07-23T08:52:36;25.00;93.40
52107;DHT22;38105;52.968;5.974;2022-07-23T08:55:03;24.80;92.20
52107;DHT22;38105;52.968;5.974;2022-07-23T08:57:29;24.90;93.30
52107;DHT22;38105;52.968;5.974;2022-07-23T08:59:54;24.80;93.50
52107;DHT22;38105;52.968;5.974;2022-07-23T09:02:21;24.80;93.30
52107;DHT22;38105;52.968;5.974;2022-07-23T09:04:47;24.60;93.50
52107;DHT22;38105;52.968;5.974;2022-07-23T09:07:12;24.50;93.90
52107;DHT22;38105;52.968;5.974;2022-07-23T09:09:38;24.20;93.10
52107;DHT22;38105;52.968;5.974;2022-07-23T09:14:38;24.30;93.70
52107;DHT22;38105;52.968;5.974;2022-07-23T09:17:15;24.10;93.80
52107;DHT22;38105;52.968;5.974;2022-07-23T09:19:42;24.10;94.40
52107;DHT22;38105;52.968;5.974;2022-07-23T09:22:26;24.30;94.10
52107;DHT22;38105;52.968;5.974;2022-07-23T09:30:17;24.30;94.10
52107;DHT22;38105;52.968;5.974;2022-07-23T09:32:43;24.50;94.50
52107;DHT22;38105;52.968;5.974;2022-07-23T09:35:09;24.60;94.80
52107;DHT22;38105;52.968;5.974;2022-07-23T09:37:34;24.80;94.30
52107;DHT22;38105;52.968;5.974;2022-07-23T09:40:08;25.00;94.10
52107;DHT22;38105;52.968;5.974;2022-07-23T09:42:35;25.10;94.50
52107;DHT22;38105;52.968;5.974;2022-07-23T09:45:01;25.10;94.20
52107;DHT22;38105;52.968;5.974;2022-07-23T09:47:29;25.10;94.10
52107;DHT22;38105;52.968;5.974;2022-07-23T09:50:08;25.10;93.90
52107;DHT22;38105;52.968;5.974;2022-07-23T09:52:46;25.20;93.10
52107;DHT22;38105;52.968;5.974;2022-07-23T09:55:16;25.30;94.30
52107;DHT22;38105;52.968;5.974;2022-07-23T09:57:43;25.10;94.20
52107;DHT22;38105;52.968;5.974;2022-07-23T10:00:11;25.40;93.90
52107;DHT22;38105;52.968;5.974;2022-07-23T10:02:37;25.80;94.60
52107;DHT22;38105;52.968;5.974;2022-07-23T10:05:03;25.70;93.90
52107;DHT22;38105;52.968;5.974;2022-07-23T10:07:33;25.50;94.00
52107;DHT22;38105;52.968;5.974;2022-07-23T10:10:00;26.00;94.50
52107;DHT22;38105;52.968;5.974;2022-07-23T10:12:26;27.00;93.90
52107;DHT22;38105;52.968;5.974;2022-07-23T10:15:10;27.50;93.30
52107;DHT22;38105;52.968;5.974;2022-07-23T10:17:36;27.60;92.90
52107;DHT22;38105;52.968;5.974;2022-07-23T10:20:03;27.30;92.70
52107;DHT22;38105;52.968;5.974;2022-07-23T10:22:33;26.70;92.50
52107;DHT22;38105;52.968;5.974;2022-07-23T10:25:28;26.70;92.90
52107;DHT22;38105;52.968;5.974;2022-07-23T10:28:40;26.30;93.40
52107;DHT22;38105;52.968;5.974;2022-07-23T10:31:17;25.90;93.00
52107;DHT22;38105;52.968;5.974;2022-07-23T10:34:18;26.50;93.30
52107;DHT22;38105;52.968;5.974;2022-07-23T10:37:01;27.20;93.80
52107;DHT22;38105;52.968;5.974;2022-07-23T10:39:32;26.70;92.50
52107;DHT22;38105;52.968;5.974;2022-07-23T10:42:12;26.30;92.70
52107;DHT22;38105;52.968;5.974;2022-07-23T10:44:43;25.90;93.50
52107;DHT22;38105;52.968;5.974;2022-07-23T10:47:10;25.90;93.00
52107;DHT22;38105;52.968;5.974;2022-07-23T10:49:48;25.70;93.60
52107;DHT22;38105;52.968;5.974;2022-07-23T10:57:18;26.40;93.20
52107;DHT22;38105;52.968;5.974;2022-07-23T11:02:36;26.30;93.20
52107;DHT22;38105;52.968;5.974;2022-07-23T11:07:30;26.70;93.60
52107;DHT22;38105;52.968;5.974;2022-07-23T11:09:57;26.80;93.70
52107;DHT22;38105;52.968;5.974;2022-07-23T11:15:13;26.30;94.10
52107;DHT22;38105;52.968;5.974;2022-07-23T11:17:58;26.10;93.60
52107;DHT22;38105;52.968;5.974;2022-07-23T11:20:28;26.30;94.30
52107;DHT22;38105;52.968;5.974;2022-07-23T11:22:58;26.50;94.60
52107;DHT22;38105;52.968;5.974;2022-07-23T11:27:51;26.20;93.80
52107;DHT22;38105;52.968;5.974;2022-07-23T11:35:34;25.60;94.80
52107;DHT22;38105;52.968;5.974;2022-07-23T11:38:10;25.40;94.30
52107;DHT22;38105;52.968;5.974;2022-07-23T11:40:38;25.60;93.40
52107;DHT22;38105;52.968;5.974;2022-07-23T11:43:06;25.30;94.10
52107;DHT22;38105;52.968;5.974;2022-07-23T11:45:38;25.50;94.70
52107;DHT22;38105;52.968;5.974;2022-07-23T11:48:15;25.40;95.00
52107;DHT22;38105;52.968;5.974;2022-07-23T11:50:41;25.30;94.70
52107;DHT22;38105;52.968;5.974;2022-07-23T11:53:07;25.40;95.30
52107;DHT22;38105;52.968;5.974;2022-07-23T11:55:32;25.70;95.10
52107;DHT22;38105;52.968;5.974;2022-07-23T11:57:58;26.10;95.40
52107;DHT22;38105;52.968;5.974;2022-07-23T12:00:26;26.30;95.20
52107;DHT22;38105;52.968;5.974;2022-07-23T12:02:56;26.40;95.70
52107;DHT22;38105;52.968;5.974;2022-07-23T12:05:30;26.30;94.50
52107;DHT22;38105;52.968;5.974;2022-07-23T12:07:58;26.40;94.50
52107;DHT22;38105;52.968;5.974;2022-07-23T12:10:26;26.50;94.80
52107;DHT22;38105;52.968;5.974;2022-07-23T12:15:31;26.50;94.80
52107;DHT22;38105;52.968;5.974;2022-07-23T12:17:59;26.50;94.80
52107;DHT22;38105;52.968;5.974;2022-07-23T12:20:30;26.30;95.10
52107;DHT22;38105;52.968;5.974;2022-07-23T12:23:01;26.10;95.10
52107;DHT22;38105;52.968;5.974;2022-07-23T12:25:32;26.00;95.40
52107;DHT22;38105;52.968;5.974;2022-07-23T12:28:16;25.90;95.40
52107;DHT22;38105;52.968;5.974;2022-07-23T12:30:45;25.70;94.90
52107;DHT22;38105;52.968;5.974;2022-07-23T12:33:25;25.60;94.90
52107;DHT22;38105;52.968;5.974;2022-07-23T12:35:53;25.40;95.30
52107;DHT22;38105;52.968;5.974;2022-07-23T12:38:21;25.50;96.30
52107;DHT22;38105;52.968;5.974;2022-07-23T12:40:59;25.70;96.40
52107;DHT22;38105;52.968;5.974;2022-07-23T12:43:30;25.60;95.50
52107;DHT22;38105;52.968;5.974;2022-07-23T12:51:27;25.60;96.70
52107;DHT22;38105;52.968;5.974;2022-07-23T12:54:10;25.90;96.50
52107;DHT22;38105;52.968;5.974;2022-07-23T12:56:39;25.90;96.00
52107;DHT22;38105;52.968;5.974;2022-07-23T12:59:08;25.80;95.90
52107;DHT22;38105;52.968;5.974;2022-07-23T13:01:59;25.80;96.20
52107;DHT22;38105;52.968;5.974;2022-07-23T13:04:25;25.80;95.90
52107;DHT22;38105;52.968;5.974;2022-07-23T13:06:56;25.70;95.90
52107;DHT22;38105;52.968;5.974;2022-07-23T13:09:30;25.60;96.20
52107;DHT22;38105;52.968;5.974;2022-07-23T13:11:57;25.40;96.30
52107;DHT22;38105;52.968;5.974;2022-07-23T13:14:23;25.60;96.80
52107;DHT22;38105;52.968;5.974;2022-07-23T13:16:50;25.70;96.40
52107;DHT22;38105;52.968;5.974;2022-07-23T13:19:17;25.70;96.70
52107;DHT22;38105;52.968;5.974;2022-07-23T13:21:43;25.90;96.20
52107;DHT22;38105;52.968;5.974;2022-07-23T13:24:10;26.00;96.30
52107;DHT22;38105;52.968;5.974;2022-07-23T13:26:36;25.90;95.90
52107;DHT22;38105;52.968;5.974;2022-07-23T13:29:02;25.90;96.30
52107;DHT22;38105;52.968;5.974;2022-07-23T13:31:28;25.80;96.60
52107;DHT22;38105;52.968;5.974;2022-07-23T13:33:54;25.80;96.60
52107;DHT22;38105;52.968;5.974;2022-07-23T13:36:20;25.90;96.60
52107;DHT22;38105;52.968;5.974;2022-07-23T13:38:45;25.80;96.60
52107;DHT22;38105;52.968;5.974;2022-07-23T13:41:11;25.60;96.60
52107;DHT22;38105;52.968;5.974;2022-07-23T13:43:36;25.20;96.20
52107;DHT22;38105;52.968;5.974;2022-07-23T13:46:02;25.00;96.90
52107;DHT22;38105;52.968;5.974;2022-07-23T13:48:28;25.00;97.20
52107;DHT22;38105;52.968;5.974;2022-07-23T13:50:54;24.80;97.30
52107;DHT22;38105;52.968;5.974;2022-07-23T13:53:22;24.70;97.10
52107;DHT22;38105;52.968;5.974;2022-07-23T13:55:49;24.80;97.80
52107;DHT22;38105;52.968;5.974;2022-07-23T13:58:16;24.80;97.80
52107;DHT22;38105;52.968;5.974;2022-07-23T14:00:45;24.70;97.90
52107;DHT22;38105;52.968;5.974;2022-07-23T14:03:11;24.50;98.00
52107;DHT22;38105;52.968;5.974;2022-07-23T14:05:37;24.40;98.10
52107;DHT22;38105;52.968;5.974;2022-07-23T14:08:03;24.40;97.90
52107;DHT22;38105;52.968;5.974;2022-07-23T14:10:29;24.60;98.20
52107;DHT22;38105;52.968;5.974;2022-07-23T14:12:55;24.70;98.00
52107;DHT22;38105;52.968;5.974;2022-07-23T14:15:24;24.90;98.30
52107;DHT22;38105;52.968;5.974;2022-07-23T14:17:52;25.00;97.10
52107;DHT22;38105;52.968;5.974;2022-07-23T14:20:18;25.00;97.70
52107;DHT22;38105;52.968;5.974;2022-07-23T14:22:44;25.00;97.40
52107;DHT22;38105;52.968;5.974;2022-07-23T14:25:10;24.90;97.40
52107;DHT22;38105;52.968;5.974;2022-07-23T14:27:36;24.80;97.00
52107;DHT22;38105;52.968;5.974;2022-07-23T14:30:04;24.90;97.10
52107;DHT22;38105;52.968;5.974;2022-07-23T14:32:30;24.80;96.80
52107;DHT22;38105;52.968;5.974;2022-07-23T14:34:56;24.80;97.30
52107;DHT22;38105;52.968;5.974;2022-07-23T14:37:22;24.80;97.70
52107;DHT22;38105;52.968;5.974;2022-07-23T14:39:48;24.70;97.30
52107;DHT22;38105;52.968;5.974;2022-07-23T14:42:13;24.80;97.20
52107;DHT22;38105;52.968;5.974;2022-07-23T14:44:39;24.90;97.40
52107;DHT22;38105;52.968;5.974;2022-07-23T14:47:05;24.80;97.40
52107;DHT22;38105;52.968;5.974;2022-07-23T14:49:31;24.80;97.70
52107;DHT22;38105;52.968;5.974;2022-07-23T14:51:57;24.80;97.60
52107;DHT22;38105;52.968;5.974;2022-07-23T14:54:24;24.70;98.00
52107;DHT22;38105;52.968;5.974;2022-07-23T14:56:52;24.70;98.30
52107;DHT22;38105;52.968;5.974;2022-07-23T14:59:18;24.80;98.10
52107;DHT22;38105;52.968;5.974;2022-07-23T15:01:43;24.80;98.10
52107;DHT22;38105;52.968;5.974;2022-07-23T15:04:09;24.70;97.70
52107;DHT22;38105;52.968;5.974;2022-07-23T15:06:35;24.70;98.10
52107;DHT22;38105;52.968;5.974;2022-07-23T15:09:00;24.80;98.40
52107;DHT22;38105;52.968;5.974;2022-07-23T15:11:27;24.90;98.00
52107;DHT22;38105;52.968;5.974;2022-07-23T15:13:54;24.90;97.90
52107;DHT22;38105;52.968;5.974;2022-07-23T15:16:20;24.90;97.70
52107;DHT22;38105;52.968;5.974;2022-07-23T15:18:46;24.80;97.90
52107;DHT22;38105;52.968;5.974;2022-07-23T15:21:12;24.70;98.20
52107;DHT22;38105;52.968;5.974;2022-07-23T15:23:38;24.50;97.70
52107;DHT22;38105;52.968;5.974;2022-07-23T15:26:05;24.60;97.60
52107;DHT22;38105;52.968;5.974;2022-07-23T15:28:31;24.60;97.90
52107;DHT22;38105;52.968;5.974;2022-07-23T15:30:56;24.70;97.90
52107;DHT22;38105;52.968;5.974;2022-07-23T15:33:22;24.70;97.90
52107;DHT22;38105;52.968;5.974;2022-07-23T15:35:48;24.60;98.20
52107;DHT22;38105;52.968;5.974;2022-07-23T15:38:15;24.50;97.70
52107;DHT22;38105;52.968;5.974;2022-07-23T15:40:41;24.30;98.80
52107;DHT22;38105;52.968;5.974;2022-07-23T15:43:06;24.30;99.30
52107;DHT22;38105;52.968;5.974;2022-07-23T15:45:32;24.40;98.90
52107;DHT22;38105;52.968;5.974;2022-07-23T15:47:58;24.40;98.50
52107;DHT22;38105;52.968;5.974;2022-07-23T15:50:24;24.30;97.80
52107;DHT22;38105;52.968;5.974;2022-07-23T15:52:49;24.10;97.40
52107;DHT22;38105;52.968;5.974;2022-07-23T15:55:15;24.00;98.40
52107;DHT22;38105;52.968;5.974;2022-07-23T15:57:40;24.00;99.20
52107;DHT22;38105;52.968;5.974;2022-07-23T16:00:07;23.90;98.40
52107;DHT22;38105;52.968;5.974;2022-07-23T16:02:34;24.00;99.10
52107;DHT22;38105;52.968;5.974;2022-07-23T16:04:59;24.00;98.90
52107;DHT22;38105;52.968;5.974;2022-07-23T16:07:25;24.00;99.70
52107;DHT22;38105;52.968;5.974;2022-07-23T16:09:50;24.00;99.00
52107;DHT22;38105;52.968;5.974;2022-07-23T16:12:16;24.00;98.70
52107;DHT22;38105;52.968;5.974;2022-07-23T16:14:42;24.00;98.80